createdAt,value
2022-10-11T00:01:36.522Z,5.91
2022-10-11T00:04:03.386Z,5.90
2022-10-11T00:06:30.010Z,5.89
2022-10-11T00:08:58.835Z,5.84
2022-10-11T00:11:25.505Z,5.77
2022-10-11T00:13:54.356Z,5.72
2022-10-11T00:16:23.623Z,5.69
2022-10-11T00:18:50.199Z,5.65
2022-10-11T00:21:17.205Z,5.66
2022-10-11T00:23:43.819Z,5.63
2022-10-11T00:26:11.957Z,5.58
2022-10-11T00:28:39.030Z,5.51
2022-10-11T00:31:10.910Z,5.43
2022-10-11T00:33:38.734Z,5.36
2022-10-11T00:36:06.753Z,5.35
2022-10-11T00:38:33.510Z,5.36
2022-10-11T00:41:00.521Z,5.34
2022-10-11T00:43:29.591Z,5.27
2022-10-11T00:45:55.987Z,5.25
2022-10-11T00:48:34.006Z,5.18
2022-10-11T00:51:04.871Z,5.12
2022-10-11T00:53:33.015Z,5.04
2022-10-11T00:56:14.573Z,5.04
2022-10-11T00:58:42.547Z,5.04
2022-10-11T01:01:09.482Z,5.07
2022-10-11T01:03:38.167Z,5.02
2022-10-11T01:06:05.293Z,4.98
2022-10-11T01:08:32.769Z,4.94
2022-10-11T01:10:59.345Z,4.88
2022-10-11T01:13:31.574Z,4.84
2022-10-11T01:16:15.353Z,4.81
2022-10-11T01:18:59.445Z,4.83
2022-10-11T01:21:52.070Z,4.85
2022-10-11T01:24:43.807Z,4.89
2022-10-11T01:27:34.904Z,4.91
2022-10-11T01:30:19.486Z,4.94
2022-10-11T01:33:06.395Z,4.97
2022-10-11T01:35:51.787Z,4.96
2022-10-11T01:38:38.547Z,4.94
2022-10-11T01:41:21.157Z,4.98
2022-10-11T01:43:49.927Z,5.02
2022-10-11T01:46:16.938Z,5.07
2022-10-11T01:48:52.671Z,5.10
2022-10-11T01:51:27.945Z,5.05
2022-10-11T01:54:19.187Z,4.99
2022-10-11T01:57:04.026Z,4.95
2022-10-11T02:00:09.914Z,4.93
2022-10-11T02:02:58.339Z,4.92
2022-10-11T02:05:36.870Z,4.93
2022-10-11T02:08:06.222Z,4.96
2022-10-11T02:10:40.305Z,4.97
2022-10-11T02:13:15.264Z,4.95
2022-10-11T02:15:44.278Z,4.93
2022-10-11T02:18:18.316Z,4.88
2022-10-11T02:20:45.906Z,4.85
2022-10-11T02:23:17.794Z,4.79
2022-10-11T02:25:45.703Z,4.75
2022-10-11T02:28:16.883Z,4.80
2022-10-11T02:30:48.234Z,4.76
2022-10-11T02:33:22.575Z,4.75
2022-10-11T02:35:55.102Z,4.72
2022-10-11T02:38:26.227Z,4.66
2022-10-11T02:41:18.977Z,4.63
2022-10-11T02:43:57.337Z,4.67
2022-10-11T02:46:25.182Z,4.66
2022-10-11T02:48:54.423Z,4.63
2022-10-11T02:51:20.984Z,4.58
2022-10-11T02:53:47.578Z,4.50
2022-10-11T02:56:14.083Z,4.42
2022-10-11T02:58:40.576Z,4.45
2022-10-11T03:01:07.681Z,4.44
2022-10-11T03:03:35.157Z,4.45
2022-10-11T03:06:04.704Z,4.43
2022-10-11T03:08:31.662Z,4.45
2022-10-11T03:11:00.714Z,4.44
2022-10-11T03:13:29.642Z,4.47
2022-10-11T03:16:07.288Z,4.53
2022-10-11T03:18:34.071Z,4.55
2022-10-11T03:21:00.716Z,4.61
2022-10-11T03:23:27.692Z,4.61
2022-10-11T03:25:54.216Z,4.58
2022-10-11T03:28:21.635Z,4.58
2022-10-11T03:30:49.373Z,4.54
2022-10-11T03:33:17.497Z,4.54
2022-10-11T03:35:46.121Z,4.57
2022-10-11T03:38:14.741Z,4.58
2022-10-11T03:40:42.619Z,4.54
2022-10-11T03:43:09.304Z,4.52
2022-10-11T03:45:39.059Z,4.49
2022-10-11T03:48:05.990Z,4.47
2022-10-11T03:50:33.005Z,4.46
2022-10-11T03:52:59.483Z,4.43
2022-10-11T03:55:26.090Z,4.34
2022-10-11T03:57:52.935Z,4.23
2022-10-11T04:00:19.641Z,4.15
2022-10-11T04:02:46.083Z,4.14
2022-10-11T04:05:12.797Z,4.17
2022-10-11T04:07:42.538Z,4.18
2022-10-11T04:10:10.235Z,4.17
2022-10-11T04:12:38.329Z,4.16
2022-10-11T04:15:08.136Z,4.15
2022-10-11T04:17:34.842Z,4.17
2022-10-11T04:20:01.745Z,4.16
2022-10-11T04:22:28.289Z,4.17
2022-10-11T04:24:54.749Z,4.16
2022-10-11T04:27:21.466Z,4.15
2022-10-11T04:29:48.114Z,4.14
2022-10-11T04:32:14.755Z,4.09
2022-10-11T04:34:46.654Z,4.06
2022-10-11T04:37:13.788Z,4.08
2022-10-11T04:39:40.281Z,4.07
2022-10-11T04:42:07.200Z,4.06
2022-10-11T04:44:33.691Z,4.05
2022-10-11T04:47:02.668Z,4.06
2022-10-11T04:49:29.919Z,4.06
2022-10-11T04:51:57.025Z,4.06
2022-10-11T04:54:23.902Z,4.07
2022-10-11T04:56:52.749Z,4.07
2022-10-11T04:59:19.288Z,3.96
2022-10-11T05:01:45.950Z,3.83
2022-10-11T05:04:14.819Z,3.81
2022-10-11T05:06:41.503Z,3.80
2022-10-11T05:09:08.147Z,3.84
2022-10-11T05:11:34.928Z,3.89
2022-10-11T05:14:01.596Z,3.94
2022-10-11T05:16:28.343Z,3.97
2022-10-11T05:18:55.261Z,3.98
2022-10-11T05:21:24.852Z,4.04
2022-10-11T05:23:56.225Z,4.04
2022-10-11T05:26:24.467Z,4.09
2022-10-11T05:28:52.800Z,4.14
2022-10-11T05:31:19.509Z,4.14
2022-10-11T05:33:46.526Z,4.16
2022-10-11T05:36:15.696Z,4.17
2022-10-11T05:38:42.286Z,4.18
2022-10-11T05:41:12.036Z,4.25
2022-10-11T05:43:38.976Z,4.29
2022-10-11T05:46:08.351Z,4.34
2022-10-11T05:48:35.088Z,4.36
2022-10-11T05:51:03.599Z,4.38
2022-10-11T05:53:30.629Z,4.40
2022-10-11T05:55:58.007Z,4.44
2022-10-11T05:58:24.491Z,4.47
2022-10-11T06:00:51.098Z,4.52
2022-10-11T06:03:17.708Z,4.54
2022-10-11T06:05:44.296Z,4.54
2022-10-11T06:08:11.408Z,4.54
2022-10-11T06:10:38.708Z,4.55
2022-10-11T06:13:06.124Z,4.57
2022-10-11T06:15:33.499Z,4.59
2022-10-11T06:18:00.137Z,4.61
2022-10-11T06:20:27.076Z,4.62
2022-10-11T06:22:56.769Z,4.64
2022-10-11T06:25:23.670Z,4.66
2022-10-11T06:27:52.624Z,4.68
2022-10-11T06:30:19.301Z,4.73
2022-10-11T06:32:45.886Z,4.74
2022-10-11T06:35:12.435Z,4.80
2022-10-11T06:37:38.994Z,4.81
2022-10-11T06:40:06.576Z,4.83
2022-10-11T06:42:33.029Z,4.86
2022-10-11T06:45:00.278Z,4.87
2022-10-11T06:47:27.126Z,4.89
2022-10-11T06:49:54.033Z,4.95
2022-10-11T06:52:20.950Z,5.00
2022-10-11T06:54:47.478Z,5.10
2022-10-11T06:57:16.523Z,5.17
2022-10-11T06:59:43.541Z,5.30
2022-10-11T07:02:10.708Z,5.38
2022-10-11T07:04:37.727Z,5.45
2022-10-11T07:07:04.713Z,5.51
2022-10-11T07:09:31.757Z,5.58
2022-10-11T07:11:58.660Z,5.62
2022-10-11T07:14:28.088Z,5.65
2022-10-11T07:16:54.626Z,5.67
2022-10-11T07:19:21.438Z,5.71
2022-10-11T07:21:48.492Z,5.78
2022-10-11T07:24:15.322Z,5.86
2022-10-11T07:26:59.670Z,5.94
2022-10-11T07:29:26.255Z,6.00
2022-10-11T07:31:52.757Z,6.10
2022-10-11T07:34:20.679Z,6.21
2022-10-11T07:36:47.263Z,6.32
2022-10-11T07:39:16.388Z,6.53
2022-10-11T07:41:46.162Z,6.81
2022-10-11T07:44:13.120Z,7.06
2022-10-11T07:46:39.595Z,7.27
2022-10-11T07:49:06.187Z,7.68
2022-10-11T07:51:33.317Z,8.18
2022-10-11T07:54:04.715Z,8.55
2022-10-11T07:56:33.854Z,8.79
2022-10-11T07:59:03.664Z,8.80
2022-10-11T08:01:31.304Z,8.90
2022-10-11T08:04:00.165Z,8.95
2022-10-11T08:06:31.591Z,9.03
2022-10-11T08:09:00.037Z,9.39
2022-10-11T08:11:32.891Z,9.83
2022-10-11T08:14:00.120Z,10.66
2022-10-11T08:16:26.742Z,11.96
2022-10-11T08:18:56.791Z,12.19
2022-10-11T08:21:23.763Z,11.57
2022-10-11T08:23:50.743Z,11.00
2022-10-11T08:26:17.373Z,10.90
2022-10-11T08:28:44.023Z,10.55
2022-10-11T08:31:13.527Z,10.73
2022-10-11T08:33:40.501Z,10.78
2022-10-11T08:36:08.919Z,10.59
2022-10-11T08:38:37.292Z,11.21
2022-10-11T08:41:13.724Z,11.67
2022-10-11T08:43:46.263Z,12.62
2022-10-11T08:46:15.461Z,14.05
2022-10-11T08:48:46.159Z,15.28
2022-10-11T08:51:18.122Z,14.88
2022-10-11T08:54:12.720Z,15.63
2022-10-11T08:56:40.757Z,16.77
2022-10-11T08:59:13.211Z,17.19
2022-10-11T09:02:05.041Z,17.56
2022-10-11T09:04:32.476Z,17.75
2022-10-11T09:07:03.860Z,17.96
2022-10-11T09:10:09.748Z,18.22
2022-10-11T09:12:52.855Z,18.63
2022-10-11T09:15:30.846Z,19.06
2022-10-11T09:18:12.815Z,19.25
2022-10-11T09:20:57.043Z,19.57
2022-10-11T09:23:38.940Z,19.54
2022-10-11T09:26:19.092Z,19.63
2022-10-11T09:28:56.147Z,19.77
2022-10-11T09:31:25.750Z,19.73
2022-10-11T09:33:52.638Z,19.46
2022-10-11T09:36:28.968Z,19.20
2022-10-11T09:39:14.716Z,18.93
2022-10-11T09:41:53.508Z,18.57
2022-10-11T09:44:24.459Z,18.12
2022-10-11T09:46:53.976Z,17.67
2022-10-11T09:49:26.151Z,17.56
2022-10-11T09:51:59.155Z,17.55
2022-10-11T09:54:40.318Z,17.48
2022-10-11T09:57:17.889Z,17.33
2022-10-11T09:59:44.299Z,17.20
2022-10-11T10:02:14.315Z,17.12
2022-10-11T10:05:11.925Z,17.10
2022-10-11T10:07:57.336Z,17.17
2022-10-11T10:10:35.140Z,17.02
2022-10-11T10:13:04.455Z,17.08
2022-10-11T10:15:36.235Z,17.03
2022-10-11T10:18:06.059Z,16.94
2022-10-11T10:20:35.480Z,16.99
2022-10-11T10:23:12.866Z,17.00
2022-10-11T10:25:43.493Z,17.00
2022-10-11T10:28:36.768Z,17.02
2022-10-11T10:31:04.867Z,17.11
2022-10-11T10:33:34.291Z,17.15
2022-10-11T10:36:06.974Z,17.14
2022-10-11T10:38:52.394Z,17.26
2022-10-11T10:41:19.538Z,17.19
2022-10-11T10:43:53.601Z,17.47
2022-10-11T10:46:35.302Z,17.62
2022-10-11T10:52:19.730Z,17.90
2022-10-11T10:55:08.066Z,17.87
2022-10-11T10:58:02.365Z,18.03
2022-10-11T11:00:58.810Z,17.95
2022-10-11T11:03:46.629Z,18.17
2022-10-11T11:06:36.635Z,18.41
2022-10-11T11:09:22.715Z,18.67
2022-10-11T11:11:58.413Z,19.02
2022-10-11T11:14:40.402Z,19.45
2022-10-11T11:17:23.969Z,19.57
2022-10-11T11:20:12.922Z,19.39
2022-10-11T11:22:50.458Z,19.29
2022-10-11T11:25:25.921Z,18.79
2022-10-11T11:28:01.399Z,18.38
2022-10-11T11:30:49.775Z,18.57
2022-10-11T11:33:32.412Z,18.98
2022-10-11T11:36:06.015Z,19.32
2022-10-11T11:38:55.487Z,19.05
2022-10-11T11:41:39.148Z,18.56
2022-10-11T11:44:16.251Z,18.03
2022-10-11T11:47:05.766Z,17.79
2022-10-11T11:49:37.941Z,17.73
2022-10-11T11:52:07.179Z,17.41
2022-10-11T11:55:30.867Z,17.03
2022-10-11T11:58:25.161Z,16.61
2022-10-11T12:01:37.393Z,16.17
2022-10-11T12:04:12.090Z,15.78
2022-10-11T12:06:47.908Z,15.54
2022-10-11T12:09:24.871Z,15.35
2022-10-11T12:11:57.510Z,15.19
2022-10-11T12:14:29.343Z,15.11
2022-10-11T12:17:18.489Z,14.97
2022-10-11T12:20:14.676Z,14.95
2022-10-11T12:22:56.958Z,14.95
2022-10-11T12:25:23.889Z,14.98
2022-10-11T12:27:53.361Z,14.99
2022-10-11T12:30:47.120Z,15.01
2022-10-11T12:33:18.023Z,14.98
2022-10-11T12:35:53.953Z,14.94
2022-10-11T12:38:40.235Z,14.91
2022-10-11T12:41:09.722Z,15.19
2022-10-11T12:44:20.446Z,15.91
2022-10-11T12:46:57.595Z,16.59
2022-10-11T12:49:24.825Z,17.19
2022-10-11T12:52:02.380Z,17.64
2022-10-11T12:54:50.106Z,17.99
2022-10-11T12:57:40.467Z,18.22
2022-10-11T13:00:33.751Z,18.16
2022-10-11T13:03:31.122Z,18.25
2022-10-11T13:06:01.719Z,18.73
2022-10-11T13:08:36.286Z,19.05
2022-10-11T13:11:06.248Z,19.06
2022-10-11T13:13:41.467Z,18.89
2022-10-11T13:16:17.246Z,18.21
2022-10-11T13:18:48.313Z,18.16
2022-10-11T13:21:24.151Z,18.27
2022-10-11T13:23:55.819Z,18.57
2022-10-11T13:26:22.725Z,18.88
2022-10-11T13:28:51.195Z,18.97
2022-10-11T13:31:18.145Z,19.06
2022-10-11T13:33:45.875Z,18.77
2022-10-11T13:36:37.060Z,18.72
2022-10-11T13:39:03.794Z,18.76
2022-10-11T13:41:32.039Z,18.78
2022-10-11T13:44:00.204Z,18.75
2022-10-11T13:46:29.543Z,18.93
2022-10-11T13:49:05.455Z,18.97
2022-10-11T13:51:42.364Z,18.88
2022-10-11T13:54:13.499Z,18.46
2022-10-11T13:56:51.428Z,18.13
2022-10-11T13:59:19.810Z,17.87
2022-10-11T14:01:47.352Z,17.52
2022-10-11T14:04:17.804Z,17.34
2022-10-11T14:07:19.374Z,17.12
2022-10-11T14:09:47.113Z,16.87
2022-10-11T14:12:25.851Z,16.77
2022-10-11T14:14:53.022Z,16.67
2022-10-11T14:17:24.798Z,16.53
2022-10-11T14:20:41.794Z,16.31
2022-10-11T14:23:08.851Z,16.17
2022-10-11T14:25:35.419Z,16.01
2022-10-11T14:28:05.777Z,15.90
2022-10-11T14:30:32.480Z,15.82
2022-10-11T14:33:01.645Z,15.74
2022-10-11T14:35:31.023Z,15.69
2022-10-11T14:37:58.277Z,15.64
2022-10-11T14:40:28.522Z,15.63
2022-10-11T14:42:55.267Z,15.60
2022-10-11T14:45:22.208Z,15.59
2022-10-11T14:47:49.678Z,15.54
2022-10-11T14:50:31.388Z,15.49
2022-10-11T14:52:58.388Z,15.47
2022-10-11T14:55:25.358Z,15.48
2022-10-11T14:57:51.912Z,15.47
2022-10-11T15:00:27.492Z,15.47
2022-10-11T15:02:55.013Z,15.52
2022-10-11T15:05:23.476Z,15.60
2022-10-11T15:07:50.067Z,15.65
2022-10-11T15:10:23.361Z,15.69
2022-10-11T15:12:51.367Z,15.74
2022-10-11T15:15:23.122Z,15.77
2022-10-11T15:17:55.889Z,15.82
2022-10-11T15:20:43.414Z,15.88
2022-10-11T15:23:10.388Z,15.87
2022-10-11T15:25:38.236Z,15.80
2022-10-11T15:28:05.598Z,15.76
2022-10-11T15:30:41.307Z,15.74
2022-10-11T15:33:08.761Z,15.74
2022-10-11T15:35:35.264Z,15.68
2022-10-11T15:38:02.213Z,15.68
2022-10-11T15:40:36.181Z,15.69
2022-10-11T15:43:04.490Z,15.64
2022-10-11T15:45:31.619Z,15.63
2022-10-11T15:47:58.770Z,15.62
2022-10-11T15:50:34.996Z,15.56
2022-10-11T15:53:07.778Z,15.48
2022-10-11T15:55:38.086Z,15.41
2022-10-11T15:58:04.734Z,15.30
2022-10-11T16:00:34.496Z,15.22
2022-10-11T16:03:01.157Z,15.14
2022-10-11T16:05:28.975Z,15.09
2022-10-11T16:07:58.266Z,15.01
2022-10-11T16:10:24.753Z,14.95
2022-10-11T16:12:51.366Z,14.90
2022-10-11T16:15:17.952Z,14.82
2022-10-11T16:17:46.591Z,14.74
2022-10-11T16:20:13.946Z,14.66
2022-10-11T16:22:41.098Z,14.59
2022-10-11T16:25:07.962Z,14.49
2022-10-11T16:27:34.846Z,14.38
2022-10-11T16:30:01.454Z,14.30
2022-10-11T16:32:28.294Z,14.19
2022-10-11T16:34:54.864Z,14.08
2022-10-11T16:37:22.150Z,13.99
2022-10-11T16:39:48.738Z,13.92
2022-10-11T16:42:15.614Z,13.82
2022-10-11T16:44:42.518Z,13.72
2022-10-11T16:47:09.305Z,13.62
2022-10-11T16:49:36.185Z,13.51
2022-10-11T16:52:03.926Z,13.39
2022-10-11T16:54:31.233Z,13.25
2022-10-11T16:57:00.560Z,13.15
2022-10-11T16:59:27.479Z,13.02
2022-10-11T17:01:54.033Z,12.91
2022-10-11T17:04:20.966Z,12.79
2022-10-11T17:06:47.573Z,12.69
2022-10-11T17:09:14.534Z,12.59
2022-10-11T17:11:41.146Z,12.50
2022-10-11T17:14:08.269Z,12.39
2022-10-11T17:16:37.388Z,12.28
2022-10-11T17:19:04.477Z,12.23
2022-10-11T17:21:31.048Z,12.12
2022-10-11T17:23:57.740Z,12.00
2022-10-11T17:26:26.496Z,11.92
2022-10-11T17:28:57.593Z,11.82
2022-10-11T17:31:24.902Z,11.74
2022-10-11T17:33:53.478Z,11.66
2022-10-11T17:36:34.559Z,11.57
2022-10-11T17:39:09.476Z,11.51
2022-10-11T17:41:38.788Z,11.42
2022-10-11T17:44:05.756Z,11.38
2022-10-11T17:46:35.749Z,11.33
2022-10-11T17:49:04.873Z,11.27
2022-10-11T17:51:32.130Z,11.21
2022-10-11T17:53:58.891Z,11.16
2022-10-11T17:56:31.362Z,11.08
2022-10-11T17:59:03.161Z,11.02
2022-10-11T18:01:30.070Z,10.93
2022-10-11T18:04:03.182Z,10.81
2022-10-11T18:06:35.067Z,10.76
2022-10-11T18:09:03.669Z,10.72
2022-10-11T18:11:31.151Z,10.67
2022-10-11T18:13:57.893Z,10.64
2022-10-11T18:16:29.268Z,10.57
2022-10-11T18:18:57.492Z,10.46
2022-10-11T18:21:28.774Z,10.40
2022-10-11T18:24:01.971Z,10.28
2022-10-11T18:26:30.784Z,10.19
2022-10-11T18:28:58.137Z,10.10
2022-10-11T18:31:29.251Z,10.02
2022-10-11T18:33:56.336Z,10.01
2022-10-11T18:36:25.707Z,10.00
2022-10-11T18:38:56.181Z,9.97
2022-10-11T18:41:24.975Z,9.91
2022-10-11T18:43:54.260Z,9.89
2022-10-11T18:46:22.423Z,9.84
2022-10-11T18:48:50.268Z,9.81
2022-10-11T18:51:23.852Z,9.78
2022-10-11T18:53:50.998Z,9.73
2022-10-11T18:56:20.767Z,9.72
2022-10-11T18:58:52.834Z,9.68
2022-10-11T19:01:25.500Z,9.67
2022-10-11T19:03:56.564Z,9.61
2022-10-11T19:06:25.804Z,9.56
2022-10-11T19:08:55.745Z,9.52
2022-10-11T19:11:23.795Z,9.51
2022-10-11T19:13:55.416Z,9.50
2022-10-11T19:16:22.011Z,9.44
2022-10-11T19:18:50.110Z,9.39
2022-10-11T19:21:17.022Z,9.32
2022-10-11T19:23:45.452Z,9.26
2022-10-11T19:26:14.956Z,9.20
2022-10-11T19:28:42.024Z,9.14
2022-10-11T19:31:10.988Z,9.11
2022-10-11T19:33:39.827Z,9.12
2022-10-11T19:36:06.897Z,9.08
2022-10-11T19:38:34.969Z,9.01
2022-10-11T19:41:02.251Z,8.94
2022-10-11T19:43:28.779Z,8.86
2022-10-11T19:46:07.559Z,8.85
2022-10-11T19:48:38.090Z,8.85
2022-10-11T19:51:14.151Z,8.84
2022-10-11T19:53:41.586Z,8.80
2022-10-11T19:56:13.362Z,8.76
2022-10-11T19:58:40.712Z,8.70
2022-10-11T20:01:11.959Z,8.57
2022-10-11T20:03:39.425Z,8.53
2022-10-11T20:06:07.864Z,8.50
2022-10-11T20:08:36.375Z,8.48
2022-10-11T20:11:08.093Z,8.40
2022-10-11T20:13:36.163Z,8.29
2022-10-11T20:16:11.164Z,8.20
2022-10-11T20:18:39.298Z,8.09
2022-10-11T20:21:13.663Z,8.05
2022-10-11T20:26:20.785Z,7.96
2022-10-11T20:28:55.711Z,7.94
2022-10-11T20:31:31.600Z,7.92
2022-10-11T20:34:01.799Z,7.91
2022-10-11T20:36:30.047Z,7.92
2022-10-11T20:38:57.366Z,7.95
2022-10-11T20:41:31.170Z,7.95
2022-10-11T20:43:59.449Z,7.95
2022-10-11T20:46:27.872Z,7.89
2022-10-11T20:49:01.180Z,7.84
2022-10-11T20:51:29.006Z,7.79
2022-10-11T20:53:56.404Z,7.70
2022-10-11T20:56:23.486Z,7.65
2022-10-11T20:58:54.893Z,7.62
2022-10-11T21:01:29.100Z,7.61
2022-10-11T21:03:57.739Z,7.63
2022-10-11T21:06:24.733Z,7.61
2022-10-11T21:08:54.748Z,7.58
2022-10-11T21:11:21.240Z,7.54
2022-10-11T21:13:53.382Z,7.55
2022-10-11T21:16:19.950Z,7.50
2022-10-11T21:18:50.299Z,7.49
2022-10-11T21:21:16.860Z,7.46
2022-10-11T21:23:43.323Z,7.41
2022-10-11T21:26:12.275Z,7.28
2022-10-11T21:28:40.348Z,7.18
2022-10-11T21:31:09.704Z,7.16
2022-10-11T21:33:37.425Z,7.12
2022-10-11T21:36:09.803Z,7.07
2022-10-11T21:38:36.915Z,7.07
2022-10-11T21:41:15.780Z,7.16
2022-10-11T21:43:42.474Z,7.15
2022-10-11T21:46:13.802Z,7.12
2022-10-11T21:48:42.984Z,7.17
2022-10-11T21:51:30.548Z,7.18
2022-10-11T21:54:00.278Z,7.18
2022-10-11T21:56:27.482Z,7.18
2022-10-11T21:58:54.145Z,7.15
2022-10-11T22:01:21.139Z,7.11
2022-10-11T22:03:48.335Z,7.07
2022-10-11T22:06:15.569Z,7.07
2022-10-11T22:08:42.980Z,7.01
2022-10-11T22:11:09.871Z,7.03
2022-10-11T22:13:38.872Z,7.00
2022-10-11T22:16:07.261Z,6.94
2022-10-11T22:18:34.618Z,6.95
2022-10-11T22:21:12.611Z,7.00
2022-10-11T22:23:43.909Z,7.01
2022-10-11T22:26:31.496Z,6.98
2022-10-11T22:29:00.084Z,6.98
2022-10-11T22:31:26.774Z,7.02
2022-10-11T22:33:55.501Z,7.06
2022-10-11T22:36:24.133Z,7.07
2022-10-11T22:38:51.749Z,7.11
2022-10-11T22:41:18.360Z,7.11
2022-10-11T22:43:45.289Z,7.11
2022-10-11T22:46:11.830Z,7.11
2022-10-11T22:48:38.305Z,7.11
2022-10-11T22:51:04.973Z,7.11
2022-10-11T22:53:31.976Z,7.11
2022-10-11T22:55:58.823Z,7.08
2022-10-11T22:58:25.792Z,7.04
2022-10-11T23:00:52.800Z,7.00
2022-10-11T23:03:19.666Z,6.94
2022-10-11T23:05:57.409Z,6.95
2022-10-11T23:08:24.390Z,6.92
2022-10-11T23:10:50.954Z,6.89
2022-10-11T23:13:17.842Z,6.86
2022-10-11T23:15:47.081Z,6.90
2022-10-11T23:18:15.993Z,6.91
2022-10-11T23:20:43.665Z,6.92
2022-10-11T23:23:12.722Z,6.92
2022-10-11T23:25:39.687Z,6.93
2022-10-11T23:28:09.466Z,6.92
2022-10-11T23:30:38.925Z,6.90
2022-10-11T23:33:05.392Z,6.88
2022-10-11T23:35:34.136Z,6.86
2022-10-11T23:38:00.574Z,6.81
2022-10-11T23:40:27.192Z,6.79
2022-10-11T23:42:54.012Z,6.75
2022-10-11T23:45:20.863Z,6.72
2022-10-11T23:47:47.902Z,6.69
2022-10-11T23:50:15.063Z,6.67
2022-10-11T23:52:42.131Z,6.66
2022-10-11T23:55:09.303Z,6.64
2022-10-11T23:57:36.530Z,6.56
